MSC Kwangyang — D5NP6 — position and weather

sailwx.info

Track history (hours):
 
Tides and Currents Weather Stations Pressure Air Temp Water Temp Dewpoint Dewpoint Depression Visibility Wind Speed Wind Dir Waves Ship Positions

MSC Kwangyang

Last reported at 2018-Jul-20 08:18 UTC. Time now 2018-Jul-23 11:38 UTC.
Position N 26°10' W 079°19'.

Length 304 m; draft 12.6 m.

Type: Ship. MMSI: 636017973.

Date/timePositionNaut miles runAvg speedWind from/ knotsBaromVisibWave heightAir tempDewpointWater temp
2018-Jul-20 08:18N 26°10' W 079°19'516.2
2018-Jul-20 08:00N 26°08' W 079°24'1016.9
2018-Jul-20 07:26N 26°03' W 079°33'921.3
2018-Jul-20 07:00N 25°58' W 079°41'1121.4
2018-Jul-20 06:30N 25°52' W 079°51'1020.5
2018-Jul-20 06:00N 25°47' W 080°01'611.7
2018-Jul-20 05:30N 25°46' W 080°07'2 3.5
2018-Jul-20 05:00N 25°46' W 080°09'0 0.0
2018-Jul-20 04:29N 25°46' W 080°09'0 0.0
2018-Jul-20 03:59N 25°46' W 080°09'0 0.0
2018-Jul-20 03:29N 25°46' W 080°09'0 0.0
2018-Jul-20 02:59N 25°46' W 080°09'0 0.0
2018-Jul-20 02:29N 25°46' W 080°09'0 0.0
2018-Jul-20 01:59N 25°46' W 080°09'0 0.0
2018-Jul-20 01:29N 25°46' W 080°09'0 0.0
2018-Jul-20 00:59N 25°46' W 080°09'0 0.0
2018-Jul-20 00:29N 25°46' W 080°09'0 0.0
2018-Jul-19 23:59N 25°46' W 080°09'0 0.0
2018-Jul-19 23:20N 25°46' W 080°09'0 0.0
2018-Jul-19 22:56N 25°46' W 080°09'0 0.0
2018-Jul-19 22:29N 25°46' W 080°09'0 0.0
2018-Jul-19 21:59N 25°46' W 080°09'0 0.0
2018-Jul-19 21:29N 25°46' W 080°09'0 0.0
2018-Jul-19 20:59N 25°46' W 080°09'0 0.4
2018-Jul-19 20:31N 25°46' W 080°10'0 0.2
2018-Jul-19 20:00N 25°46' W 080°09'2 4.6
2018-Jul-19 19:31N 25°45' W 080°07'5 9.4
2018-Jul-19 19:00N 25°46' W 080°02'611.3
2018-Jul-19 18:31N 25°42' W 079°58'713.8
2018-Jul-19 18:00N 25°35' W 079°58'714.1
2018-Jul-19 17:30N 25°28' W 079°58'714.7
2018-Jul-19 17:00N 25°21' W 079°59'1017.8
2018-Jul-19 16:27N 25°12' W 080°03'  
2018-Jul-17 10:49N 29°55' W 090°07'4 4.2
2018-Jul-17 09:53N 29°57' W 090°03'3 8.9
2018-Jul-17 09:30N 29°56' W 089°60'5 6.2
2018-Jul-17 08:38N 29°52' W 089°56'211.5
2018-Jul-17 08:30N 29°53' W 089°57'7 9.0
2018-Jul-17 07:42N 29°46' W 090°01'2 9.5
2018-Jul-17 07:30N 29°45' W 090°01'230 5.7
2018-Jul-15 14:46N 29°08' W 094°22'412.6
2018-Jul-15 14:25N 29°09' W 094°27'512.6
2018-Jul-15 14:00N 29°13' W 094°31'612.2
2018-Jul-15 13:30N 29°17' W 094°36'612.5
2018-Jul-15 13:01N 29°21' W 094°42'611.5
2018-Jul-15 12:31N 29°22' W 094°48'510.6
2018-Jul-15 12:01N 29°27' W 094°51'510.6
2018-Jul-15 11:30N 29°32' W 094°53'5 9.4
2018-Jul-15 11:00N 29°35' W 094°56'3 6.3
2018-Jul-15 10:31N 29°37' W 094°60'1 1.1
2018-Jul-15 10:00N 29°37' W 095°00'0 0.0
2018-Jul-15 09:29N 29°37' W 095°00'0 0.0
2018-Jul-15 09:00N 29°37' W 095°00'0 0.0
2018-Jul-15 08:29N 29°37' W 095°00'0 0.0
2018-Jul-15 07:59N 29°37' W 095°00'0 0.0
2018-Jul-15 07:30N 29°37' W 095°00'0 0.0
2018-Jul-15 07:00N 29°37' W 095°00'0 0.0
2018-Jul-15 06:29N 29°37' W 095°00'0 0.0
2018-Jul-15 06:00N 29°37' W 095°00'0 0.0
2018-Jul-15 05:29N 29°37' W 095°00'0 0.0
2018-Jul-15 04:59N 29°37' W 095°00'0 0.0
2018-Jul-15 04:30N 29°37' W 095°00'0 0.0
2018-Jul-15 04:00N 29°37' W 095°00'0 0.0
2018-Jul-15 03:29N 29°37' W 095°00'0 0.0
2018-Jul-15 03:00N 29°37' W 095°00'0 0.0
2018-Jul-15 02:29N 29°37' W 095°00'0 0.0
2018-Jul-15 01:59N 29°37' W 095°00'0 0.0
2018-Jul-15 01:29N 29°37' W 095°00'0 0.0
2018-Jul-15 01:00N 29°37' W 095°00'0 0.0
2018-Jul-15 00:30N 29°37' W 095°00'0 0.0
2018-Jul-15 00:00N 29°37' W 095°00'0 0.0
2018-Jul-14 23:30N 29°37' W 095°00'0 0.0
2018-Jul-14 22:59N 29°37' W 095°00'0 0.0
2018-Jul-14 22:30N 29°37' W 095°00'0 0.1
2018-Jul-14 22:00N 29°37' W 095°00'0 0.0
2018-Jul-14 21:29N 29°37' W 095°00'0 0.0
2018-Jul-14 21:00N 29°37' W 095°00'0 0.0
2018-Jul-14 20:29N 29°37' W 095°00'0 0.0
2018-Jul-14 19:59N 29°37' W 095°00'0 0.0
2018-Jul-14 19:29N 29°37' W 095°00'0 0.0
2018-Jul-14 19:00N 29°37' W 095°00'0 0.0
2018-Jul-14 18:30N 29°37' W 095°00'0 0.0
2018-Jul-14 18:00N 29°37' W 095°00'0 0.0
2018-Jul-14 17:29N 29°37' W 095°00'0 0.0
2018-Jul-14 16:59N 29°37' W 095°00'0 0.0
2018-Jul-14 16:30N 29°37' W 095°00'0 0.0
2018-Jul-14 15:59N 29°37' W 095°00'0 0.0
2018-Jul-14 15:30N 29°37' W 095°00'0 0.0
2018-Jul-14 15:00N 29°37' W 095°00'0 0.0
2018-Jul-14 14:29N 29°37' W 095°00'0 0.0
2018-Jul-14 13:30N 29°37' W 095°00'0 0.0
2018-Jul-14 13:00N 29°37' W 095°00'0 0.0
2018-Jul-14 12:29N 29°37' W 095°00'0 0.0
2018-Jul-14 12:00N 29°37' W 095°00'0 0.0
2018-Jul-14 11:29N 29°37' W 095°00'0 0.0
2018-Jul-14 11:00N 29°37' W 095°00'0 0.0
2018-Jul-14 10:30N 29°37' W 095°00'1 1.6
2018-Jul-14 10:00N 29°37' W 095°01'2 3.3
2018-Jul-14 09:30N 29°37' W 094°59'4 8.2
2018-Jul-14 09:00N 29°34' W 094°56'612.0
2018-Jul-14 08:30N 29°29' W 094°52'612.3
2018-Jul-14 08:01N 29°24' W 094°49'611.4
2018-Jul-14 07:31N 29°21' W 094°43'612.8
2018-Jul-14 07:00N 29°18' W 094°37'4 8.6
2018-Jul-14 06:30N 29°16' W 094°33'612.0
2018-Jul-14 06:00N 29°12' W 094°27'713.4
2018-Jul-14 05:30N 29°06' W 094°25'815.2
2018-Jul-14 04:59N 28°58' W 094°25'914.6
2018-Jul-14 04:20N 28°48' W 094°25'514.9
2018-Jul-14 04:00N 28°43' W 094°25'714.8
2018-Jul-14 03:30N 28°36' W 094°25'1014.9
2018-Jul-14 02:50N 28°26' W 094°25'814.4
2018-Jul-14 02:15N 28°18' W 094°25'514.1
2018-Jul-14 01:55N 28°13' W 094°25'  
2018-Jul-11 16:48N 19°40' W 096°07'311.7
2018-Jul-11 16:30N 19°37' W 096°06'611.7
2018-Jul-11 16:00N 19°31' W 096°03'611.7
2018-Jul-11 15:30N 19°26' W 096°01'611.9
2018-Jul-11 15:00N 19°20' W 095°58'611.3
2018-Jul-11 14:30N 19°15' W 095°58'611.8
2018-Jul-11 14:00N 19°11' W 096°03'5 9.1
2018-Jul-11 13:30N 19°12' W 096°08'1 0.9
2018-Jul-11 12:57N 19°13' W 096°08'0 0.0
2018-Jul-11 12:30N 19°13' W 096°08'0 0.0
2018-Jul-11 11:54N 19°13' W 096°08'0 0.0
2018-Jul-11 11:30N 19°13' W 096°08'0 0.0
2018-Jul-11 10:57N 19°13' W 096°08'0 0.0
2018-Jul-11 10:18N 19°13' W 096°08'0 0.0
2018-Jul-11 10:00N 19°13' W 096°08'0 0.0
2018-Jul-11 09:30N 19°13' W 096°08'0 0.0
2018-Jul-11 09:00N 19°13' W 096°08'0 0.0
2018-Jul-11 08:30N 19°13' W 096°08'0 0.0
2018-Jul-11 08:00N 19°13' W 096°08'0 0.0
2018-Jul-11 07:30N 19°13' W 096°08'0 0.0
2018-Jul-11 07:00N 19°13' W 096°08'0 0.0
2018-Jul-11 06:30N 19°13' W 096°08'0 0.0
2018-Jul-11 05:57N 19°13' W 096°08'0 0.0
2018-Jul-11 05:30N 19°13' W 096°08'0 0.0
2018-Jul-11 05:00N 19°13' W 096°08'0 0.0
2018-Jul-11 04:30N 19°13' W 096°08'0 0.0
2018-Jul-11 04:00N 19°13' W 096°08'0 0.0
2018-Jul-11 03:30N 19°13' W 096°08'0 0.1
2018-Jul-11 03:00N 19°13' W 096°08'0 0.0
2018-Jul-11 02:30N 19°13' W 096°08'0 0.0
2018-Jul-11 01:54N 19°13' W 096°08'0 0.0
2018-Jul-11 01:30N 19°13' W 096°08'0 0.0
2018-Jul-11 00:57N 19°13' W 096°08'0 0.0
2018-Jul-11 00:30N 19°13' W 096°08'0 0.0
2018-Jul-11 00:00N 19°13' W 096°08'0 0.1
2018-Jul-10 23:30N 19°13' W 096°08'0 0.0
2018-Jul-10 23:00N 19°13' W 096°08'0 0.0
2018-Jul-10 22:27N 19°13' W 096°08'0 0.0
2018-Jul-10 21:57N 19°13' W 096°08'0 0.0
2018-Jul-10 21:27N 19°13' W 096°08'0 0.0
2018-Jul-10 21:00N 19°13' W 096°08'0 0.0
2018-Jul-10 20:30N 19°13' W 096°08'0 0.0
2018-Jul-10 19:57N 19°13' W 096°08'0 0.0
2018-Jul-10 19:30N 19°13' W 096°08'0 0.0
2018-Jul-10 18:54N 19°13' W 096°08'0 0.0
2018-Jul-10 18:30N 19°13' W 096°08'0 0.0
2018-Jul-10 18:00N 19°13' W 096°08'0 0.0
2018-Jul-10 17:30N 19°13' W 096°08'0 0.0
2018-Jul-10 16:57N 19°13' W 096°08'0 0.0
2018-Jul-10 16:30N 19°13' W 096°08'1 2.8
2018-Jul-10 16:00N 19°12' W 096°07'2 4.9
2018-Jul-10 15:30N 19°11' W 096°04'4 7.4
2018-Jul-10 15:00N 19°13' W 096°01'510.0
2018-Jul-10 14:30N 19°15' W 095°56'2 3.3
2018-Jul-10 14:00N 19°16' W 095°54'2 3.0
2018-Jul-10 13:30N 19°14' W 095°54'5 9.1
2018-Jul-10 13:00N 19°15' W 095°49'612.4
2018-Jul-10 12:30N 19°16' W 095°43'612.3
2018-Jul-10 12:00N 19°18' W 095°37'  
Track history (hours):
 
Tides and Currents Weather Stations Pressure Air Temp Water Temp Dewpoint Dewpoint Depression Visibility Wind Speed Wind Dir Waves Ship Positions

MSC Kwangyang

Last reported at 2018-Jul-20 08:18 UTC. Time now 2018-Jul-23 11:38 UTC.
Position N 26°10' W 079°19'.

Length 304 m; draft 12.6 m.

Type: Ship. MMSI: 636017973.

Date/timePositionNaut miles runAvg speedWind from/ knotsBaromVisibWave heightAir tempDewpointWater temp
2018-Jul-20 08:18N 26°10' W 079°19'516.2
2018-Jul-20 08:00N 26°08' W 079°24'1016.9
2018-Jul-20 07:26N 26°03' W 079°33'921.3
2018-Jul-20 07:00N 25°58' W 079°41'1121.4
2018-Jul-20 06:30N 25°52' W 079°51'1020.5
2018-Jul-20 06:00N 25°47' W 080°01'611.7
2018-Jul-20 05:30N 25°46' W 080°07'2 3.5
2018-Jul-20 05:00N 25°46' W 080°09'0 0.0
2018-Jul-20 04:29N 25°46' W 080°09'0 0.0
2018-Jul-20 03:59N 25°46' W 080°09'0 0.0
2018-Jul-20 03:29N 25°46' W 080°09'0 0.0
2018-Jul-20 02:59N 25°46' W 080°09'0 0.0
2018-Jul-20 02:29N 25°46' W 080°09'0 0.0
2018-Jul-20 01:59N 25°46' W 080°09'0 0.0
2018-Jul-20 01:29N 25°46' W 080°09'0 0.0
2018-Jul-20 00:59N 25°46' W 080°09'0 0.0
2018-Jul-20 00:29N 25°46' W 080°09'0 0.0
2018-Jul-19 23:59N 25°46' W 080°09'0 0.0
2018-Jul-19 23:20N 25°46' W 080°09'0 0.0
2018-Jul-19 22:56N 25°46' W 080°09'0 0.0
2018-Jul-19 22:29N 25°46' W 080°09'0 0.0
2018-Jul-19 21:59N 25°46' W 080°09'0 0.0
2018-Jul-19 21:29N 25°46' W 080°09'0 0.0
2018-Jul-19 20:59N 25°46' W 080°09'0 0.4
2018-Jul-19 20:31N 25°46' W 080°10'0 0.2
2018-Jul-19 20:00N 25°46' W 080°09'2 4.6
2018-Jul-19 19:31N 25°45' W 080°07'5 9.4
2018-Jul-19 19:00N 25°46' W 080°02'611.3
2018-Jul-19 18:31N 25°42' W 079°58'713.8
2018-Jul-19 18:00N 25°35' W 079°58'714.1
2018-Jul-19 17:30N 25°28' W 079°58'714.7
2018-Jul-19 17:00N 25°21' W 079°59'1017.8
2018-Jul-19 16:27N 25°12' W 080°03'  
2018-Jul-17 10:49N 29°55' W 090°07'4 4.2
2018-Jul-17 09:53N 29°57' W 090°03'3 8.9
2018-Jul-17 09:30N 29°56' W 089°60'5 6.2
2018-Jul-17 08:38N 29°52' W 089°56'211.5
2018-Jul-17 08:30N 29°53' W 089°57'7 9.0
2018-Jul-17 07:42N 29°46' W 090°01'2 9.5
2018-Jul-17 07:30N 29°45' W 090°01'230 5.7
2018-Jul-15 14:46N 29°08' W 094°22'412.6
2018-Jul-15 14:25N 29°09' W 094°27'512.6
2018-Jul-15 14:00N 29°13' W 094°31'612.2
2018-Jul-15 13:30N 29°17' W 094°36'612.5
2018-Jul-15 13:01N 29°21' W 094°42'611.5
2018-Jul-15 12:31N 29°22' W 094°48'510.6
2018-Jul-15 12:01N 29°27' W 094°51'510.6
2018-Jul-15 11:30N 29°32' W 094°53'5 9.4
2018-Jul-15 11:00N 29°35' W 094°56'3 6.3
2018-Jul-15 10:31N 29°37' W 094°60'1 1.1
2018-Jul-15 10:00N 29°37' W 095°00'0 0.0
2018-Jul-15 09:29N 29°37' W 095°00'0 0.0
2018-Jul-15 09:00N 29°37' W 095°00'0 0.0
2018-Jul-15 08:29N 29°37' W 095°00'0 0.0
2018-Jul-15 07:59N 29°37' W 095°00'0 0.0
2018-Jul-15 07:30N 29°37' W 095°00'0 0.0
2018-Jul-15 07:00N 29°37' W 095°00'0 0.0
2018-Jul-15 06:29N 29°37' W 095°00'0 0.0
2018-Jul-15 06:00N 29°37' W 095°00'0 0.0
2018-Jul-15 05:29N 29°37' W 095°00'0 0.0
2018-Jul-15 04:59N 29°37' W 095°00'0 0.0
2018-Jul-15 04:30N 29°37' W 095°00'0 0.0
2018-Jul-15 04:00N 29°37' W 095°00'0 0.0
2018-Jul-15 03:29N 29°37' W 095°00'0 0.0
2018-Jul-15 03:00N 29°37' W 095°00'0 0.0
2018-Jul-15 02:29N 29°37' W 095°00'0 0.0
2018-Jul-15 01:59N 29°37' W 095°00'0 0.0
2018-Jul-15 01:29N 29°37' W 095°00'0 0.0
2018-Jul-15 01:00N 29°37' W 095°00'0 0.0
2018-Jul-15 00:30N 29°37' W 095°00'0 0.0
2018-Jul-15 00:00N 29°37' W 095°00'0 0.0
2018-Jul-14 23:30N 29°37' W 095°00'0 0.0
2018-Jul-14 22:59N 29°37' W 095°00'0 0.0
2018-Jul-14 22:30N 29°37' W 095°00'0 0.1
2018-Jul-14 22:00N 29°37' W 095°00'0 0.0
2018-Jul-14 21:29N 29°37' W 095°00'0 0.0
2018-Jul-14 21:00N 29°37' W 095°00'0 0.0
2018-Jul-14 20:29N 29°37' W 095°00'0 0.0
2018-Jul-14 19:59N 29°37' W 095°00'0 0.0
2018-Jul-14 19:29N 29°37' W 095°00'0 0.0
2018-Jul-14 19:00N 29°37' W 095°00'0 0.0
2018-Jul-14 18:30N 29°37' W 095°00'0 0.0
2018-Jul-14 18:00N 29°37' W 095°00'0 0.0
2018-Jul-14 17:29N 29°37' W 095°00'0 0.0
2018-Jul-14 16:59N 29°37' W 095°00'0 0.0
2018-Jul-14 16:30N 29°37' W 095°00'0 0.0
2018-Jul-14 15:59N 29°37' W 095°00'0 0.0
2018-Jul-14 15:30N 29°37' W 095°00'0 0.0
2018-Jul-14 15:00N 29°37' W 095°00'0 0.0
2018-Jul-14 14:29N 29°37' W 095°00'0 0.0
2018-Jul-14 13:30N 29°37' W 095°00'0 0.0
2018-Jul-14 13:00N 29°37' W 095°00'0 0.0
2018-Jul-14 12:29N 29°37' W 095°00'0 0.0
2018-Jul-14 12:00N 29°37' W 095°00'0 0.0
2018-Jul-14 11:29N 29°37' W 095°00'0 0.0
2018-Jul-14 11:00N 29°37' W 095°00'0 0.0
2018-Jul-14 10:30N 29°37' W 095°00'1 1.6
2018-Jul-14 10:00N 29°37' W 095°01'2 3.3
2018-Jul-14 09:30N 29°37' W 094°59'4 8.2
2018-Jul-14 09:00N 29°34' W 094°56'612.0
2018-Jul-14 08:30N 29°29' W 094°52'612.3
2018-Jul-14 08:01N 29°24' W 094°49'611.4
2018-Jul-14 07:31N 29°21' W 094°43'612.8
2018-Jul-14 07:00N 29°18' W 094°37'4 8.6
2018-Jul-14 06:30N 29°16' W 094°33'612.0
2018-Jul-14 06:00N 29°12' W 094°27'713.4
2018-Jul-14 05:30N 29°06' W 094°25'815.2
2018-Jul-14 04:59N 28°58' W 094°25'914.6
2018-Jul-14 04:20N 28°48' W 094°25'514.9
2018-Jul-14 04:00N 28°43' W 094°25'714.8
2018-Jul-14 03:30N 28°36' W 094°25'1014.9
2018-Jul-14 02:50N 28°26' W 094°25'814.4
2018-Jul-14 02:15N 28°18' W 094°25'514.1
2018-Jul-14 01:55N 28°13' W 094°25'  
2018-Jul-11 16:48N 19°40' W 096°07'311.7
2018-Jul-11 16:30N 19°37' W 096°06'611.7
2018-Jul-11 16:00N 19°31' W 096°03'611.7
2018-Jul-11 15:30N 19°26' W 096°01'611.9
2018-Jul-11 15:00N 19°20' W 095°58'611.3
2018-Jul-11 14:30N 19°15' W 095°58'611.8
2018-Jul-11 14:00N 19°11' W 096°03'5 9.1
2018-Jul-11 13:30N 19°12' W 096°08'1 0.9
2018-Jul-11 12:57N 19°13' W 096°08'0 0.0
2018-Jul-11 12:30N 19°13' W 096°08'0 0.0
2018-Jul-11 11:54N 19°13' W 096°08'0 0.0
2018-Jul-11 11:30N 19°13' W 096°08'0 0.0
2018-Jul-11 10:57N 19°13' W 096°08'0 0.0
2018-Jul-11 10:18N 19°13' W 096°08'0 0.0
2018-Jul-11 10:00N 19°13' W 096°08'0 0.0
2018-Jul-11 09:30N 19°13' W 096°08'0 0.0
2018-Jul-11 09:00N 19°13' W 096°08'0 0.0
2018-Jul-11 08:30N 19°13' W 096°08'0 0.0
2018-Jul-11 08:00N 19°13' W 096°08'0 0.0
2018-Jul-11 07:30N 19°13' W 096°08'0 0.0
2018-Jul-11 07:00N 19°13' W 096°08'0 0.0
2018-Jul-11 06:30N 19°13' W 096°08'0 0.0
2018-Jul-11 05:57N 19°13' W 096°08'0 0.0
2018-Jul-11 05:30N 19°13' W 096°08'0 0.0
2018-Jul-11 05:00N 19°13' W 096°08'0 0.0
2018-Jul-11 04:30N 19°13' W 096°08'0 0.0
2018-Jul-11 04:00N 19°13' W 096°08'0 0.0
2018-Jul-11 03:30N 19°13' W 096°08'0 0.1
2018-Jul-11 03:00N 19°13' W 096°08'0 0.0
2018-Jul-11 02:30N 19°13' W 096°08'0 0.0
2018-Jul-11 01:54N 19°13' W 096°08'0 0.0
2018-Jul-11 01:30N 19°13' W 096°08'0 0.0
2018-Jul-11 00:57N 19°13' W 096°08'0 0.0
2018-Jul-11 00:30N 19°13' W 096°08'0 0.0
2018-Jul-11 00:00N 19°13' W 096°08'0 0.1
2018-Jul-10 23:30N 19°13' W 096°08'0 0.0
2018-Jul-10 23:00N 19°13' W 096°08'0 0.0
2018-Jul-10 22:27N 19°13' W 096°08'0 0.0
2018-Jul-10 21:57N 19°13' W 096°08'0 0.0
2018-Jul-10 21:27N 19°13' W 096°08'0 0.0
2018-Jul-10 21:00N 19°13' W 096°08'0 0.0
2018-Jul-10 20:30N 19°13' W 096°08'0 0.0
2018-Jul-10 19:57N 19°13' W 096°08'0 0.0
2018-Jul-10 19:30N 19°13' W 096°08'0 0.0
2018-Jul-10 18:54N 19°13' W 096°08'0 0.0
2018-Jul-10 18:30N 19°13' W 096°08'0 0.0
2018-Jul-10 18:00N 19°13' W 096°08'0 0.0
2018-Jul-10 17:30N 19°13' W 096°08'0 0.0
2018-Jul-10 16:57N 19°13' W 096°08'0 0.0
2018-Jul-10 16:30N 19°13' W 096°08'1 2.8
2018-Jul-10 16:00N 19°12' W 096°07'2 4.9
2018-Jul-10 15:30N 19°11' W 096°04'4 7.4
2018-Jul-10 15:00N 19°13' W 096°01'510.0
2018-Jul-10 14:30N 19°15' W 095°56'2 3.3
2018-Jul-10 14:00N 19°16' W 095°54'2 3.0
2018-Jul-10 13:30N 19°14' W 095°54'5 9.1
2018-Jul-10 13:00N 19°15' W 095°49'612.4
2018-Jul-10 12:30N 19°16' W 095°43'612.3
2018-Jul-10 12:00N 19°18' W 095°37'  

Dump ship's entire track history